createdAt,value
2022-11-28T00:00:02.599Z,20.60
2022-11-28T00:02:29.156Z,20.61
2022-11-28T00:04:55.588Z,20.58
2022-11-28T00:07:22.186Z,20.58
2022-11-28T00:09:48.876Z,20.58
2022-11-28T00:12:15.286Z,20.58
2022-11-28T00:14:41.965Z,20.58
2022-11-28T00:17:08.522Z,20.57
2022-11-28T00:19:34.947Z,20.56
2022-11-28T00:22:01.455Z,20.56
2022-11-28T00:24:27.879Z,20.54
2022-11-28T00:26:54.249Z,20.55
2022-11-28T00:29:20.873Z,20.56
2022-11-28T00:31:47.369Z,20.55
2022-11-28T00:34:15.439Z,20.54
2022-11-28T00:36:44.703Z,20.54
2022-11-28T00:39:11.032Z,20.53
2022-11-28T00:41:37.365Z,20.54
2022-11-28T00:44:03.790Z,20.52
2022-11-28T00:46:30.343Z,20.53
2022-11-28T00:48:58.682Z,20.53
2022-11-28T00:51:27.552Z,20.51
2022-11-28T00:53:55.849Z,20.51
2022-11-28T00:56:25.526Z,20.51
2022-11-28T00:58:52.507Z,20.52
2022-11-28T01:01:21.861Z,20.50
2022-11-28T01:03:49.906Z,20.50
2022-11-28T01:06:23.968Z,20.49
2022-11-28T01:08:50.954Z,20.48
2022-11-28T01:11:17.594Z,20.49
2022-11-28T01:13:44.240Z,20.48
2022-11-28T01:16:11.061Z,20.49
2022-11-28T01:18:37.955Z,20.47
2022-11-28T01:21:05.404Z,20.47
2022-11-28T01:23:31.855Z,20.47
2022-11-28T01:25:58.297Z,20.46
2022-11-28T01:28:24.618Z,20.46
2022-11-28T01:30:51.022Z,20.46
2022-11-28T01:33:18.422Z,20.46
2022-11-28T01:35:55.014Z,20.45
2022-11-28T01:38:22.022Z,20.45
2022-11-28T01:40:49.386Z,20.44
2022-11-28T01:43:15.806Z,20.43
2022-11-28T01:45:42.432Z,20.43
2022-11-28T01:48:13.884Z,20.43
2022-11-28T01:50:42.435Z,20.43
2022-11-28T01:53:10.616Z,20.42
2022-11-28T01:55:46.814Z,20.43
2022-11-28T01:58:14.223Z,20.42
2022-11-28T02:00:40.644Z,20.41
2022-11-28T02:03:14.042Z,20.41
2022-11-28T02:05:40.816Z,20.39
2022-11-28T02:08:09.788Z,20.38
2022-11-28T02:10:41.758Z,20.38
2022-11-28T02:13:14.107Z,20.38
2022-11-28T02:16:02.126Z,20.37
2022-11-28T02:19:09.798Z,20.37
2022-11-28T02:21:47.470Z,20.36
2022-11-28T02:24:25.749Z,20.37
2022-11-28T02:27:20.914Z,20.36
2022-11-28T02:29:56.042Z,20.36
2022-11-28T02:32:56.094Z,20.35
2022-11-28T02:35:39.327Z,20.35
2022-11-28T02:38:19.202Z,20.34
2022-11-28T02:41:07.455Z,20.33
2022-11-28T02:44:04.425Z,20.32
2022-11-28T02:46:49.799Z,20.33
2022-11-28T02:49:23.828Z,20.31
2022-11-28T02:51:56.489Z,20.30
2022-11-28T02:54:24.846Z,20.31
2022-11-28T02:56:53.234Z,20.30
2022-11-28T02:59:37.849Z,20.31
2022-11-28T03:02:15.981Z,20.30
2022-11-28T03:05:07.508Z,20.30
2022-11-28T03:07:43.101Z,20.29
2022-11-28T03:10:30.359Z,20.29
2022-11-28T03:13:34.169Z,20.29
2022-11-28T03:16:13.081Z,20.28
2022-11-28T03:19:05.274Z,20.27
2022-11-28T03:21:52.255Z,20.26
2022-11-28T03:24:43.457Z,20.25
2022-11-28T03:27:37.366Z,20.25
2022-11-28T03:30:09.076Z,20.25
2022-11-28T03:32:38.103Z,20.24
2022-11-28T03:35:13.478Z,20.23
2022-11-28T03:37:44.934Z,20.23
2022-11-28T03:40:17.095Z,20.22
2022-11-28T03:42:48.815Z,20.21
2022-11-28T03:45:23.603Z,20.22
2022-11-28T03:47:57.462Z,20.21
2022-11-28T03:50:31.831Z,20.22
2022-11-28T03:53:11.907Z,20.20
2022-11-28T03:56:17.397Z,20.21
2022-11-28T03:58:52.520Z,20.20
2022-11-28T04:01:28.825Z,20.19
2022-11-28T04:04:05.836Z,20.19
2022-11-28T04:06:53.348Z,20.19
2022-11-28T04:09:46.890Z,20.19
2022-11-28T04:12:53.109Z,20.18
2022-11-28T04:15:47.045Z,20.18
2022-11-28T04:18:38.140Z,20.17
2022-11-28T04:21:19.990Z,20.18
2022-11-28T04:23:49.321Z,20.16
2022-11-28T04:26:24.501Z,20.16
2022-11-28T04:28:53.838Z,20.15
2022-11-28T04:31:22.796Z,20.14
2022-11-28T04:33:56.637Z,20.14
2022-11-28T04:36:25.729Z,20.14
2022-11-28T04:38:56.663Z,20.13
2022-11-28T04:41:32.009Z,20.13
2022-11-28T04:44:03.243Z,20.12
2022-11-28T04:46:40.206Z,20.11
2022-11-28T04:49:07.126Z,20.11
2022-11-28T04:51:36.516Z,20.11
2022-11-28T04:54:10.390Z,20.10
2022-11-28T04:56:43.814Z,20.11
2022-11-28T04:59:12.552Z,20.11
2022-11-28T05:01:42.781Z,20.09
2022-11-28T05:04:09.377Z,20.09
2022-11-28T05:06:36.586Z,20.08
2022-11-28T05:09:03.802Z,20.08
2022-11-28T05:11:30.968Z,20.08
2022-11-28T05:13:57.272Z,20.07
2022-11-28T05:16:23.863Z,20.08
2022-11-28T05:18:50.587Z,20.06
2022-11-28T05:21:16.969Z,20.06
2022-11-28T05:23:45.242Z,20.05
2022-11-28T05:26:14.697Z,20.04
2022-11-28T05:28:47.237Z,20.04
2022-11-28T05:31:14.504Z,20.04
2022-11-28T05:33:41.069Z,20.03
2022-11-28T05:36:13.210Z,20.02
2022-11-28T05:38:40.334Z,20.03
2022-11-28T05:41:07.147Z,20.01
2022-11-28T05:43:33.701Z,20.02
2022-11-28T05:46:00.137Z,20.01
2022-11-28T05:48:26.588Z,20.01
2022-11-28T05:50:52.945Z,20.00
2022-11-28T05:53:20.271Z,20.00
2022-11-28T05:55:47.257Z,20.00
2022-11-28T05:58:13.656Z,20.00
2022-11-28T06:00:40.130Z,20.00
2022-11-28T06:03:07.162Z,19.99
2022-11-28T06:05:43.247Z,19.99
2022-11-28T06:08:13.507Z,19.99
2022-11-28T06:10:40.317Z,20.00
2022-11-28T06:13:06.693Z,19.98
2022-11-28T06:15:37.508Z,19.98
2022-11-28T06:18:04.445Z,19.97
2022-11-28T06:20:30.758Z,19.96
2022-11-28T06:22:57.056Z,19.97
2022-11-28T06:25:23.417Z,19.98
2022-11-28T06:27:49.725Z,19.99
2022-11-28T06:30:16.319Z,19.98
2022-11-28T06:32:42.634Z,19.98
2022-11-28T06:35:09.178Z,19.98
2022-11-28T06:37:35.540Z,19.95
2022-11-28T06:40:01.861Z,19.96
2022-11-28T06:42:28.222Z,19.96
2022-11-28T06:44:54.591Z,19.96
2022-11-28T06:47:20.954Z,19.94
2022-11-28T06:49:48.839Z,19.94
2022-11-28T06:52:15.199Z,19.94
2022-11-28T06:54:42.022Z,19.94
2022-11-28T06:57:08.327Z,19.95
2022-11-28T06:59:34.634Z,19.94
2022-11-28T07:02:07.453Z,19.94
2022-11-28T07:04:34.512Z,19.94
2022-11-28T07:07:00.915Z,19.93
2022-11-28T07:09:27.310Z,19.94
2022-11-28T07:11:53.644Z,19.94
2022-11-28T07:14:19.958Z,19.94
2022-11-28T07:16:47.325Z,19.93
2022-11-28T07:19:14.027Z,19.91
2022-11-28T07:21:41.143Z,19.91
2022-11-28T07:24:07.549Z,19.90
2022-11-28T07:26:33.921Z,19.90
2022-11-28T07:29:00.285Z,19.92
2022-11-28T07:31:31.407Z,19.93
2022-11-28T07:34:00.658Z,19.94
2022-11-28T07:36:28.483Z,19.95
2022-11-28T07:39:00.531Z,19.96
2022-11-28T07:41:27.679Z,19.97
2022-11-28T07:43:59.586Z,19.97
2022-11-28T07:46:26.780Z,19.98
2022-11-28T07:48:53.401Z,19.98
2022-11-28T07:51:25.680Z,19.99
2022-11-28T07:53:52.512Z,19.99
2022-11-28T07:56:21.438Z,19.99
2022-11-28T07:58:48.690Z,19.99
2022-11-28T08:01:18.425Z,20.00
2022-11-28T08:03:45.729Z,20.00
2022-11-28T08:06:12.695Z,20.01
2022-11-28T08:08:39.650Z,20.02
2022-11-28T08:11:08.187Z,20.01
2022-11-28T08:13:35.878Z,20.01
2022-11-28T08:16:12.313Z,20.00
2022-11-28T08:18:39.041Z,20.01
2022-11-28T08:21:11.635Z,20.00
2022-11-28T08:23:39.258Z,20.01
2022-11-28T08:26:08.407Z,20.02
2022-11-28T08:28:35.423Z,20.03
2022-11-28T08:31:19.365Z,20.04
2022-11-28T08:33:47.934Z,20.05
2022-11-28T08:36:16.203Z,20.05
2022-11-28T08:38:53.453Z,20.04
2022-11-28T08:41:29.537Z,20.06
2022-11-28T08:43:55.835Z,20.06
2022-11-28T08:46:23.021Z,20.07
2022-11-28T08:48:51.538Z,20.10
2022-11-28T08:51:20.833Z,20.09
2022-11-28T08:53:49.327Z,20.10
2022-11-28T08:56:16.464Z,20.12
2022-11-28T08:58:42.935Z,20.12
2022-11-28T09:01:20.996Z,20.11
2022-11-28T09:03:47.975Z,20.11
2022-11-28T09:06:15.977Z,20.11
2022-11-28T09:08:42.881Z,20.12
2022-11-28T09:11:11.090Z,20.12
2022-11-28T09:13:37.911Z,20.12
2022-11-28T09:16:04.942Z,20.11
2022-11-28T09:18:31.811Z,20.13
2022-11-28T09:20:59.724Z,20.12
2022-11-28T09:23:26.313Z,20.13
2022-11-28T09:25:52.779Z,20.12
2022-11-28T09:28:19.204Z,20.13
2022-11-28T09:30:45.617Z,20.13
2022-11-28T09:33:13.314Z,20.12
2022-11-28T09:35:40.516Z,20.08
2022-11-28T09:38:07.334Z,20.09
2022-11-28T09:40:40.222Z,20.09
2022-11-28T09:43:16.290Z,20.08
2022-11-28T09:45:45.825Z,20.12
2022-11-28T09:48:24.468Z,20.14
2022-11-28T09:51:01.339Z,20.14
2022-11-28T09:53:37.641Z,20.15
2022-11-28T09:56:24.537Z,20.16
2022-11-28T09:58:58.727Z,20.16
2022-11-28T10:01:36.806Z,20.16
2022-11-28T10:04:11.403Z,20.15
2022-11-28T10:06:40.770Z,20.16
2022-11-28T10:09:22.538Z,20.17
2022-11-28T10:11:48.813Z,20.17
2022-11-28T10:14:46.625Z,20.18
2022-11-28T10:17:19.170Z,20.17
2022-11-28T10:20:06.170Z,20.16
2022-11-28T10:22:42.835Z,20.16
2022-11-28T10:25:26.475Z,20.18
2022-11-28T10:27:53.884Z,20.20
2022-11-28T10:30:22.795Z,20.18
2022-11-28T10:33:01.730Z,20.20
2022-11-28T10:35:39.989Z,20.19
2022-11-28T10:38:11.862Z,20.19
2022-11-28T10:41:07.055Z,20.21
2022-11-28T10:43:44.097Z,19.99
2022-11-28T10:46:31.233Z,19.93
2022-11-28T10:49:16.999Z,20.00
2022-11-28T10:52:13.940Z,20.04
2022-11-28T10:54:58.968Z,20.08
2022-11-28T10:57:34.418Z,20.10
2022-11-28T11:00:13.789Z,20.13
2022-11-28T11:02:55.879Z,20.13
2022-11-28T11:05:27.955Z,20.13
2022-11-28T11:07:57.220Z,20.15
2022-11-28T11:10:51.471Z,20.15
2022-11-28T11:13:26.952Z,20.16
2022-11-28T11:15:59.240Z,20.17
2022-11-28T11:18:31.402Z,20.17
2022-11-28T11:21:09.670Z,20.17
2022-11-28T11:23:38.485Z,20.18
2022-11-28T11:26:10.059Z,20.18
2022-11-28T11:28:43.773Z,20.19
2022-11-28T11:31:21.533Z,20.19
2022-11-28T11:33:51.269Z,20.19
2022-11-28T11:36:24.966Z,20.20
2022-11-28T11:38:51.557Z,20.20
2022-11-28T11:41:28.909Z,20.21
2022-11-28T11:43:57.109Z,20.20
2022-11-28T11:46:23.601Z,20.21
2022-11-28T11:48:53.428Z,20.20
2022-11-28T11:51:22.580Z,20.22
2022-11-28T11:53:59.242Z,20.21
2022-11-28T11:56:25.864Z,20.21
2022-11-28T11:58:55.488Z,20.22
2022-11-28T12:01:22.930Z,20.24
2022-11-28T12:03:57.349Z,20.23
2022-11-28T12:06:37.116Z,20.26
2022-11-28T12:09:28.519Z,20.29
2022-11-28T12:12:21.247Z,20.31
2022-11-28T12:14:49.426Z,20.30
2022-11-28T14:15:29.915Z,20.11
2022-11-28T14:18:02.190Z,20.14
2022-11-28T14:20:37.715Z,20.15
2022-11-28T14:23:36.518Z,20.16
2022-11-28T14:26:13.212Z,20.19
2022-11-28T14:28:44.470Z,20.23
2022-11-28T14:31:11.135Z,20.25
2022-11-28T14:33:42.701Z,20.29
2022-11-28T14:36:25.426Z,20.31
2022-11-28T14:39:30.473Z,20.33
2022-11-28T14:42:05.676Z,20.36
2022-11-28T14:44:57.244Z,20.39
2022-11-28T14:47:23.567Z,20.43
2022-11-28T14:50:10.299Z,20.44
2022-11-28T14:52:40.297Z,20.46
2022-11-28T14:55:09.918Z,20.44
2022-11-28T14:57:41.342Z,20.46
2022-11-28T15:00:15.425Z,20.48
2022-11-28T15:02:52.763Z,20.48
2022-11-28T15:05:22.391Z,20.48
2022-11-28T15:08:16.901Z,20.49
2022-11-28T15:10:54.826Z,20.50
2022-11-28T15:13:42.739Z,20.50
2022-11-28T15:16:13.234Z,20.51
2022-11-28T15:18:46.555Z,20.52
2022-11-28T15:21:16.721Z,20.52
2022-11-28T15:23:43.060Z,20.53
2022-11-28T15:26:27.466Z,20.54
2022-11-28T15:29:15.270Z,20.54
2022-11-28T15:31:43.207Z,20.54
2022-11-28T15:34:10.806Z,20.54
2022-11-28T15:36:39.137Z,20.54
2022-11-28T15:39:27.029Z,20.53
2022-11-28T15:41:55.578Z,20.55
2022-11-28T15:44:22.013Z,20.53
2022-11-28T15:46:48.767Z,20.55
2022-11-28T15:49:25.172Z,20.56
2022-11-28T15:51:53.873Z,20.56
2022-11-28T15:54:41.110Z,20.59
2022-11-28T15:57:19.227Z,20.60
2022-11-28T15:59:45.919Z,20.59
2022-11-28T16:02:23.439Z,20.59
2022-11-28T16:04:54.940Z,20.57
2022-11-28T16:07:21.585Z,20.61
2022-11-28T16:09:57.982Z,20.60
2022-11-28T16:12:25.304Z,20.59
2022-11-28T16:14:55.283Z,20.58
2022-11-28T16:17:40.536Z,20.59
2022-11-28T16:20:07.567Z,20.60
2022-11-28T16:22:36.589Z,20.61
2022-11-28T16:25:24.842Z,20.61
2022-11-28T16:27:57.197Z,20.61
2022-11-28T16:30:42.730Z,20.61
2022-11-28T16:33:34.013Z,20.60
2022-11-28T16:36:15.670Z,20.57
2022-11-28T16:38:43.325Z,20.55
2022-11-28T16:41:18.476Z,20.54
2022-11-28T16:43:49.401Z,20.54
2022-11-28T16:46:21.455Z,20.53
2022-11-28T16:48:52.514Z,20.52
2022-11-28T16:51:21.605Z,20.51
2022-11-28T16:53:50.674Z,20.54
2022-11-28T16:56:43.717Z,20.52
2022-11-28T16:59:18.373Z,20.53
2022-11-28T17:01:46.901Z,20.53
2022-11-28T17:04:22.100Z,20.52
2022-11-28T17:06:48.769Z,20.53
2022-11-28T17:09:15.471Z,20.53
2022-11-28T17:11:46.499Z,20.54
2022-11-28T17:14:14.053Z,20.55
2022-11-28T17:16:41.279Z,20.54
2022-11-28T17:19:08.038Z,20.55
2022-11-28T17:21:40.633Z,20.55
2022-11-28T17:24:16.087Z,20.56
2022-11-28T17:26:42.519Z,20.55
2022-11-28T17:29:13.294Z,20.54
2022-11-28T17:31:42.463Z,20.53
2022-11-28T17:34:15.898Z,20.53
2022-11-28T17:36:42.364Z,20.53
2022-11-28T17:39:09.454Z,20.51
2022-11-28T17:41:36.010Z,20.51
2022-11-28T17:44:02.662Z,20.52
2022-11-28T17:46:29.131Z,20.50
2022-11-28T17:48:56.478Z,20.48
2022-11-28T17:51:22.882Z,20.47
2022-11-28T17:53:49.266Z,20.46
2022-11-28T17:56:15.663Z,20.45
2022-11-28T17:58:42.042Z,20.44
2022-11-28T18:01:12.914Z,20.44
2022-11-28T18:03:40.145Z,20.47
2022-11-28T18:06:06.967Z,20.50
2022-11-28T18:08:33.426Z,20.52
2022-11-28T18:11:08.842Z,20.53
2022-11-28T18:13:36.193Z,20.54
2022-11-28T18:16:02.826Z,20.54
2022-11-28T18:18:29.830Z,20.54
2022-11-28T18:20:56.264Z,20.54
2022-11-28T18:23:22.623Z,20.54
2022-11-28T18:25:49.036Z,20.55
2022-11-28T18:28:18.851Z,20.55
2022-11-28T18:30:47.015Z,20.57
2022-11-28T18:33:14.894Z,20.56
2022-11-28T18:35:41.278Z,20.56
2022-11-28T18:38:08.459Z,20.57
2022-11-28T18:40:36.273Z,20.55
2022-11-28T18:43:03.467Z,20.56
2022-11-28T18:45:30.290Z,20.56
2022-11-28T18:48:00.188Z,20.57
2022-11-28T18:50:27.010Z,20.58
2022-11-28T18:52:53.441Z,20.59
2022-11-28T18:55:20.202Z,20.61
2022-11-28T18:57:46.688Z,20.63
2022-11-28T19:00:13.712Z,20.64
2022-11-28T19:02:40.685Z,20.64
2022-11-28T19:05:07.323Z,20.65
2022-11-28T19:07:33.778Z,20.65
2022-11-28T19:10:00.177Z,20.66
2022-11-28T19:12:26.545Z,20.66
2022-11-28T19:14:57.318Z,20.66
2022-11-28T19:17:26.701Z,20.66
2022-11-28T19:19:53.118Z,20.66
2022-11-28T19:22:19.481Z,20.67
2022-11-28T19:24:45.834Z,20.66
2022-11-28T19:27:14.530Z,20.67
2022-11-28T19:29:41.309Z,20.68
2022-11-28T19:32:07.942Z,20.69
2022-11-28T19:34:34.318Z,20.70
2022-11-28T19:37:00.617Z,20.69
2022-11-28T19:39:26.923Z,20.71
2022-11-28T19:41:53.929Z,20.70
2022-11-28T19:44:21.864Z,20.72
2022-11-28T19:46:48.382Z,20.72
2022-11-28T19:49:20.547Z,20.72
2022-11-28T19:51:47.915Z,20.73
2022-11-28T19:54:15.210Z,20.73
2022-11-28T19:56:41.744Z,20.73
2022-11-28T19:59:08.094Z,20.76
2022-11-28T20:01:34.571Z,20.75
2022-11-28T20:04:00.998Z,20.75
2022-11-28T20:06:30.142Z,20.74
2022-11-28T20:08:59.550Z,20.72
2022-11-28T20:11:34.339Z,20.72
2022-11-28T20:14:06.922Z,20.73
2022-11-28T20:16:35.203Z,20.74
2022-11-28T20:19:02.510Z,20.74
2022-11-28T20:21:30.267Z,20.76
2022-11-28T20:23:59.602Z,20.75
2022-11-28T20:26:26.857Z,20.77
2022-11-28T20:28:55.166Z,20.75
2022-11-28T20:31:33.685Z,20.77
2022-11-28T20:34:01.147Z,20.77
2022-11-28T20:36:30.618Z,20.80
2022-11-28T20:38:57.206Z,20.81
2022-11-28T20:41:25.523Z,20.81
2022-11-28T20:43:52.153Z,20.82
2022-11-28T20:46:24.074Z,20.82
2022-11-28T20:48:50.734Z,20.82
2022-11-28T20:51:24.667Z,20.81
2022-11-28T20:53:52.158Z,20.82
2022-11-28T20:56:21.376Z,20.82
2022-11-28T20:58:48.389Z,20.81
2022-11-28T21:01:23.437Z,20.82
2022-11-28T21:03:50.924Z,20.82
2022-11-28T21:06:17.726Z,20.80
2022-11-28T21:08:44.302Z,20.81
2022-11-28T21:11:25.571Z,20.81
2022-11-28T21:14:00.507Z,20.81
2022-11-28T21:16:31.104Z,20.80
2022-11-28T21:19:03.743Z,20.80
2022-11-28T21:21:32.535Z,20.79
2022-11-28T21:24:01.974Z,20.79
2022-11-28T21:26:30.574Z,20.78
2022-11-28T21:29:02.320Z,20.76
2022-11-28T21:31:32.331Z,20.77
2022-11-28T21:34:00.306Z,20.75
2022-11-28T21:36:29.240Z,20.73
2022-11-28T21:38:57.960Z,20.74
2022-11-28T21:41:28.722Z,20.72
2022-11-28T21:43:55.642Z,20.71
2022-11-28T21:46:22.078Z,20.71
2022-11-28T21:48:48.485Z,20.70
2022-11-28T21:51:20.272Z,20.69
2022-11-28T21:53:46.870Z,20.68
2022-11-28T21:56:13.302Z,20.68
2022-11-28T21:58:39.879Z,20.67
2022-11-28T22:01:09.184Z,20.66
2022-11-28T22:03:35.829Z,20.66
2022-11-28T22:06:16.717Z,20.66
2022-11-28T22:08:43.587Z,20.64
2022-11-28T22:11:11.256Z,20.64
2022-11-28T22:13:38.537Z,20.63
2022-11-28T22:16:14.657Z,20.63
2022-11-28T22:18:41.229Z,20.63
2022-11-28T22:21:28.666Z,20.62
2022-11-28T22:23:56.259Z,20.62
2022-11-28T22:26:22.771Z,20.61
2022-11-28T22:28:53.637Z,20.61
2022-11-28T22:31:20.827Z,20.61
2022-11-28T22:33:49.127Z,20.61
2022-11-28T22:36:17.677Z,20.58
2022-11-28T22:38:45.527Z,20.59
2022-11-28T22:41:15.943Z,20.58
2022-11-28T22:43:42.311Z,20.57
2022-11-28T22:46:10.495Z,20.57
2022-11-28T22:48:38.092Z,20.57
2022-11-28T22:51:10.156Z,20.57
2022-11-28T22:53:37.131Z,20.55
2022-11-28T22:56:08.885Z,20.56
2022-11-28T22:58:42.710Z,20.56
2022-11-28T23:01:11.614Z,20.56
2022-11-28T23:03:38.148Z,20.55
2022-11-28T23:06:14.289Z,20.54
2022-11-28T23:08:40.914Z,20.54
2022-11-28T23:11:13.561Z,20.54
2022-11-28T23:13:40.429Z,20.54
2022-11-28T23:16:10.729Z,20.53
2022-11-28T23:18:37.094Z,20.54
2022-11-28T23:21:03.873Z,20.53
2022-11-28T23:23:32.078Z,20.53
2022-11-28T23:26:11.956Z,20.53
2022-11-28T23:28:39.269Z,20.52
2022-11-28T23:31:11.947Z,20.51
2022-11-28T23:33:38.926Z,20.52
2022-11-28T23:36:23.491Z,20.50
2022-11-28T23:38:52.625Z,20.50
2022-11-28T23:41:19.795Z,20.51
2022-11-28T23:43:46.560Z,20.49
2022-11-28T23:46:14.465Z,20.49
2022-11-28T23:48:42.467Z,20.49
2022-11-28T23:51:09.106Z,20.48
2022-11-28T23:53:36.569Z,20.47
2022-11-28T23:56:08.542Z,20.48
2022-11-28T23:58:35.344Z,20.48
